createdAt,value
2017-04-10T00:00:09.545Z,74247
2017-04-10T00:00:19.350Z,74250
2017-04-10T00:00:29.442Z,74247
2017-04-10T00:00:39.530Z,74247
2017-04-10T00:00:49.620Z,74242
2017-04-10T00:00:59.713Z,74238
2017-04-10T00:01:09.811Z,74243
2017-04-10T00:01:19.662Z,74252
2017-04-10T00:01:29.470Z,74245
2017-04-10T00:01:38.992Z,74246
2017-04-10T00:01:49.087Z,74242
2017-04-10T00:01:59.182Z,74248
2017-04-10T00:02:09.272Z,74244
2017-04-10T00:02:19.363Z,74246
2017-04-10T00:02:29.447Z,74245
2017-04-10T00:02:39.250Z,74245
2017-04-10T00:02:49.366Z,74242
2017-04-10T00:02:59.461Z,74241
2017-04-10T00:03:09.557Z,74244
2017-04-10T00:03:19.663Z,74238
2017-04-10T00:03:29.756Z,74240
2017-04-10T00:03:39.855Z,74243
2017-04-10T00:03:49.945Z,74241
2017-04-10T00:04:00.036Z,74247
2017-04-10T00:04:09.843Z,74247
2017-04-10T00:04:19.644Z,74244
2017-04-10T00:04:29.733Z,74243
2017-04-10T00:04:39.826Z,74242
2017-04-10T00:04:49.916Z,74243
2017-04-10T00:05:00.007Z,74238
2017-04-10T00:05:10.105Z,74240
2017-04-10T00:05:19.617Z,74247
2017-04-10T00:05:29.708Z,74245
2017-04-10T00:05:39.508Z,74240
2017-04-10T00:05:49.628Z,74241
2017-04-10T00:05:59.718Z,74237
2017-04-10T00:06:09.805Z,74238
2017-04-10T00:06:19.608Z,74244
2017-04-10T00:06:29.697Z,74241
2017-04-10T00:06:39.500Z,74236
2017-04-10T00:06:49.591Z,74236
2017-04-10T00:06:59.396Z,74229
2017-04-10T00:07:09.492Z,74235
2017-04-10T00:07:19.292Z,74239
2017-04-10T00:07:29.379Z,74242
2017-04-10T00:07:39.472Z,74239
2017-04-10T00:07:49.563Z,74234
2017-04-10T00:07:59.651Z,74240
2017-04-10T00:08:09.450Z,74236
2017-04-10T00:08:19.546Z,74231
2017-04-10T00:08:29.631Z,74230
2017-04-10T00:08:39.728Z,74234
2017-04-10T00:08:49.834Z,74232
2017-04-10T00:08:59.928Z,74232
2017-04-10T00:09:10.038Z,74232
2017-04-10T00:09:20.130Z,74233
2017-04-10T00:09:30.228Z,74234
2017-04-10T00:09:40.319Z,74234
2017-04-10T00:09:50.409Z,74232
2017-04-10T00:10:00.501Z,74230
2017-04-10T00:10:09.734Z,74233
2017-04-10T00:10:19.822Z,74235
2017-04-10T00:10:29.912Z,74234
2017-04-10T00:10:39.716Z,74231
2017-04-10T00:10:49.812Z,74234
2017-04-10T00:10:59.897Z,74239
2017-04-10T00:11:09.987Z,74232
2017-04-10T00:11:20.079Z,74233
2017-04-10T00:11:30.172Z,74233
2017-04-10T00:11:40.263Z,74231
2017-04-10T00:11:50.352Z,74228
2017-04-10T00:12:00.444Z,74221
2017-04-10T00:12:10.244Z,74229
2017-04-10T00:12:20.048Z,74227
2017-04-10T00:12:30.139Z,74226
2017-04-10T00:12:40.228Z,74226
2017-04-10T00:12:50.325Z,74227
2017-04-10T00:13:00.409Z,74229
2017-04-10T00:13:10.534Z,74235
2017-04-10T00:13:20.654Z,74235
2017-04-10T00:13:30.742Z,74236
2017-04-10T00:13:40.829Z,74229
2017-04-10T00:13:50.631Z,74228
2017-04-10T00:14:00.717Z,74229
2017-04-10T00:14:10.809Z,74230
2017-04-10T00:14:20.903Z,74228
2017-04-10T00:14:30.992Z,74230
2017-04-10T00:14:40.798Z,74223
2017-04-10T00:14:50.599Z,74226
2017-04-10T00:15:00.396Z,74226
2017-04-10T00:15:10.486Z,74229
2017-04-10T00:15:20.576Z,74229
2017-04-10T00:15:30.658Z,74232
2017-04-10T00:15:40.743Z,74233
2017-04-10T00:15:50.546Z,74227
2017-04-10T00:16:00.641Z,74229
2017-04-10T00:16:10.735Z,74232
2017-04-10T00:16:20.818Z,74232
2017-04-10T00:16:30.914Z,74234
2017-04-10T00:16:41.012Z,74231
2017-04-10T00:16:51.099Z,74232
2017-04-10T00:17:00.898Z,74231
2017-04-10T00:17:10.701Z,74230
2017-04-10T00:17:20.799Z,74227
2017-04-10T00:17:30.888Z,74227
2017-04-10T00:17:40.689Z,74228
2017-04-10T00:17:50.492Z,74225
2017-04-10T00:18:00.295Z,74227
2017-04-10T00:18:10.378Z,74224
2017-04-10T00:18:20.461Z,74230
2017-04-10T00:18:30.548Z,74230
2017-04-10T00:18:40.636Z,74228
2017-04-10T00:18:50.439Z,74232
2017-04-10T00:19:00.527Z,74232
2017-04-10T00:19:10.616Z,74229
2017-04-10T00:19:20.708Z,74228
2017-04-10T00:19:30.834Z,74228
2017-04-10T00:19:40.920Z,74224
2017-04-10T00:19:50.722Z,74228
2017-04-10T00:20:00.809Z,74227
2017-04-10T00:20:10.037Z,74224
2017-04-10T00:20:19.839Z,74228
2017-04-10T00:20:29.936Z,74226
2017-04-10T00:20:40.031Z,74223
2017-04-10T00:20:50.120Z,74231
2017-04-10T00:21:00.208Z,74232
2017-04-10T00:21:10.306Z,74230
2017-04-10T00:21:20.400Z,74227
2017-04-10T00:21:30.494Z,74228
2017-04-10T00:21:40.587Z,74227
2017-04-10T00:21:50.108Z,74230
2017-04-10T00:21:59.913Z,74229
2017-04-10T00:22:10.011Z,74231
2017-04-10T00:22:20.102Z,74231
2017-04-10T00:22:29.905Z,74231
2017-04-10T00:22:39.997Z,74227
2017-04-10T00:22:50.090Z,74226
2017-04-10T00:23:00.193Z,74225
2017-04-10T00:23:10.005Z,74227
2017-04-10T00:23:19.819Z,74226
2017-04-10T00:23:29.912Z,74223
2017-04-10T00:23:40.002Z,74226
2017-04-10T00:23:50.101Z,74224
2017-04-10T00:23:59.625Z,74230
2017-04-10T00:24:09.728Z,74227
2017-04-10T00:24:19.835Z,74228
2017-04-10T00:24:29.927Z,74227
2017-04-10T00:24:40.061Z,74228
2017-04-10T00:24:50.157Z,74223
2017-04-10T00:25:00.252Z,74229
2017-04-10T00:25:10.345Z,74228
2017-04-10T00:25:20.153Z,74229
2017-04-10T00:25:30.248Z,74224
2017-04-10T00:25:40.337Z,74228
2017-04-10T00:25:49.856Z,74224
2017-04-10T00:25:59.950Z,74225
2017-04-10T00:26:09.751Z,74233
2017-04-10T00:26:19.844Z,74228
2017-04-10T00:26:29.690Z,74226
2017-04-10T00:26:39.788Z,74224
2017-04-10T00:26:49.887Z,74226
2017-04-10T00:26:59.986Z,74227
2017-04-10T00:27:10.083Z,74228
2017-04-10T00:27:19.882Z,74227
2017-04-10T00:27:29.400Z,74226
2017-04-10T00:27:39.497Z,74224
2017-04-10T00:27:49.596Z,74228
2017-04-10T00:27:59.687Z,74228
2017-04-10T00:28:09.490Z,74222
2017-04-10T00:28:19.589Z,74222
2017-04-10T00:28:29.682Z,74219
2017-04-10T00:28:39.772Z,74223
2017-04-10T00:28:49.871Z,74221
2017-04-10T00:28:59.965Z,74223
2017-04-10T00:29:10.056Z,74223
2017-04-10T00:29:20.150Z,74227
2017-04-10T00:29:30.247Z,74227
2017-04-10T00:29:40.335Z,74228
2017-04-10T00:29:49.854Z,74229
2017-04-10T00:29:59.951Z,74229
2017-04-10T00:30:10.042Z,74224
2017-04-10T00:30:20.129Z,74223
2017-04-10T00:30:30.223Z,74226
2017-04-10T00:30:40.311Z,74224
2017-04-10T00:30:50.112Z,74225
2017-04-10T00:30:59.911Z,74225
2017-04-10T00:31:10.044Z,74228
2017-04-10T00:31:20.135Z,74223
2017-04-10T00:31:30.226Z,74222
2017-04-10T00:31:40.319Z,74225
2017-04-10T00:31:50.406Z,74226
2017-04-10T00:32:00.497Z,74223
2017-04-10T00:32:10.590Z,74223
2017-04-10T00:32:20.686Z,74223
2017-04-10T00:32:30.793Z,74227
2017-04-10T00:32:40.881Z,74229
2017-04-10T00:32:50.694Z,74225
2017-04-10T00:33:00.782Z,74223
2017-04-10T00:33:10.879Z,74221
2017-04-10T00:33:20.683Z,74221
2017-04-10T00:33:30.780Z,74221
2017-04-10T00:33:40.584Z,74217
2017-04-10T00:33:50.390Z,74217
2017-04-10T00:34:00.480Z,74222
2017-04-10T00:34:10.574Z,74225
2017-04-10T00:34:20.668Z,74223
2017-04-10T00:34:30.756Z,74229
2017-04-10T00:34:40.845Z,74225
2017-04-10T00:34:50.653Z,74227
2017-04-10T00:35:00.465Z,74228
2017-04-10T00:35:10.267Z,74224
2017-04-10T00:35:20.356Z,74220
2017-04-10T00:35:30.204Z,74220
2017-04-10T00:35:40.296Z,74221
2017-04-10T00:35:50.384Z,74219
2017-04-10T00:36:00.470Z,74227
2017-04-10T00:36:10.565Z,74232
2017-04-10T00:36:20.655Z,74222
2017-04-10T00:36:30.759Z,74224
2017-04-10T00:36:40.843Z,74222
2017-04-10T00:36:50.660Z,74216
2017-04-10T00:37:00.746Z,74216
2017-04-10T00:37:10.835Z,74216
2017-04-10T00:37:20.935Z,74217
2017-04-10T00:37:31.026Z,74215
2017-04-10T00:37:40.835Z,74220
2017-04-10T00:37:50.641Z,74221
2017-04-10T00:38:00.735Z,74221
2017-04-10T00:38:10.828Z,74221
2017-04-10T00:38:20.933Z,74218
2017-04-10T00:38:31.027Z,74214
2017-04-10T00:38:40.846Z,74214
2017-04-10T00:38:50.938Z,74214
2017-04-10T00:39:01.040Z,74207
2017-04-10T00:39:11.130Z,74212
2017-04-10T00:39:20.978Z,74219
2017-04-10T00:39:31.070Z,74217
2017-04-10T00:39:40.916Z,74212
2017-04-10T00:39:51.007Z,74210
2017-04-10T00:40:01.094Z,74209
2017-04-10T00:40:10.621Z,74207
2017-04-10T00:40:20.709Z,74201
2017-04-10T00:40:30.802Z,74212
2017-04-10T00:40:40.891Z,74212
2017-04-10T00:40:50.993Z,74215
2017-04-10T00:41:01.080Z,74210
2017-04-10T00:41:10.882Z,74208
2017-04-10T00:41:20.971Z,74207
2017-04-10T00:41:31.056Z,74205
2017-04-10T00:41:40.862Z,74207
2017-04-10T00:41:50.669Z,74207
2017-04-10T00:42:00.774Z,74205
2017-04-10T00:42:10.866Z,74214
2017-04-10T00:42:20.954Z,74209
2017-04-10T00:42:31.045Z,74208
2017-04-10T00:42:41.134Z,74207
2017-04-10T00:42:51.235Z,74212
2017-04-10T00:43:01.332Z,74213
2017-04-10T00:43:11.457Z,74213
2017-04-10T00:43:21.264Z,74206
2017-04-10T00:43:31.354Z,74207
2017-04-10T00:43:41.176Z,74199
2017-04-10T00:43:50.992Z,74192
2017-04-10T00:44:01.089Z,74190
2017-04-10T00:44:10.896Z,74185
2017-04-10T00:44:20.425Z,74193
2017-04-10T00:44:30.519Z,74203
2017-04-10T00:44:40.622Z,74206
2017-04-10T00:44:50.427Z,74202
2017-04-10T00:45:00.533Z,74194
2017-04-10T00:45:10.621Z,74198
2017-04-10T00:45:20.709Z,74193
2017-04-10T00:45:30.812Z,74193
2017-04-10T00:45:40.911Z,74197
2017-04-10T00:45:50.710Z,74200
2017-04-10T00:46:00.797Z,74206
2017-04-10T00:46:10.602Z,74208
2017-04-10T00:46:20.119Z,74209
2017-04-10T00:46:30.210Z,74208
2017-04-10T00:46:40.303Z,74202
2017-04-10T00:46:50.397Z,74204
2017-04-10T00:47:00.483Z,74207
2017-04-10T00:47:10.577Z,74207
2017-04-10T00:47:20.666Z,74206
2017-04-10T00:47:30.809Z,74207
2017-04-10T00:47:40.898Z,74203
2017-04-10T00:47:50.698Z,74202
2017-04-10T00:48:00.816Z,74204
2017-04-10T00:48:10.905Z,74204
2017-04-10T00:48:21.001Z,74211
2017-04-10T00:48:31.101Z,74213
2017-04-10T00:48:40.909Z,74204
2017-04-10T00:48:51.011Z,74200
2017-04-10T00:49:01.105Z,74200
2017-04-10T00:49:11.195Z,74206
2017-04-10T00:49:21.286Z,74201
2017-04-10T00:49:31.386Z,74206
2017-04-10T00:49:41.475Z,74206
2017-04-10T00:49:51.572Z,74208
2017-04-10T00:50:01.681Z,74203
2017-04-10T00:50:11.769Z,74195
2017-04-10T00:50:21.570Z,74195
2017-04-10T00:50:31.658Z,74206
2017-04-10T00:50:41.763Z,74201
2017-04-10T00:50:51.569Z,74186
2017-04-10T00:51:01.656Z,74194
2017-04-10T00:51:11.757Z,74198
2017-04-10T00:51:21.563Z,74197
2017-04-10T00:51:31.656Z,74194
2017-04-10T00:51:41.472Z,74195
2017-04-10T00:51:50.988Z,74181
2017-04-10T00:52:01.107Z,74180
2017-04-10T00:52:11.210Z,74184
2017-04-10T00:52:21.300Z,74192
2017-04-10T00:52:31.396Z,74199
2017-04-10T00:52:41.498Z,74201
2017-04-10T00:52:51.588Z,74204
2017-04-10T00:53:01.674Z,74201
2017-04-10T00:53:11.763Z,74197
2017-04-10T00:53:21.856Z,74196
2017-04-10T00:53:31.950Z,74199
2017-04-10T00:53:42.058Z,74200
2017-04-10T00:53:52.149Z,74196
2017-04-10T00:54:01.947Z,74196
2017-04-10T00:54:11.752Z,74201
2017-04-10T00:54:21.842Z,74208
2017-04-10T00:54:31.650Z,74203
2017-04-10T00:54:41.467Z,74197
2017-04-10T00:54:51.562Z,74190
2017-04-10T00:55:01.657Z,74193
2017-04-10T00:55:11.756Z,74194
2017-04-10T00:55:21.845Z,74194
2017-04-10T00:55:31.645Z,74200
2017-04-10T00:55:41.742Z,74203
2017-04-10T00:55:51.828Z,74195
2017-04-10T00:56:01.922Z,74193
2017-04-10T00:56:11.721Z,74194
2017-04-10T00:56:21.812Z,74196
2017-04-10T00:56:31.909Z,74198
2017-04-10T00:56:41.712Z,74195
2017-04-10T00:56:51.802Z,74194
2017-04-10T00:57:01.605Z,74194
2017-04-10T00:57:11.703Z,74190
2017-04-10T00:57:21.810Z,74199
2017-04-10T00:57:31.618Z,74202
2017-04-10T00:57:41.461Z,74198
2017-04-10T00:57:51.556Z,74201
2017-04-10T00:58:01.655Z,74198
2017-04-10T00:58:11.456Z,74189
2017-04-10T00:58:21.548Z,74193
2017-04-10T00:58:31.643Z,74196
2017-04-10T00:58:41.458Z,74194
2017-04-10T00:58:51.556Z,74187
2017-04-10T00:59:01.646Z,74188
2017-04-10T00:59:11.734Z,74187
2017-04-10T00:59:21.831Z,74193
2017-04-10T00:59:31.637Z,74193
2017-04-10T00:59:41.448Z,74191
2017-04-10T00:59:51.578Z,74196
2017-04-10T01:00:01.669Z,74194
2017-04-10T01:00:11.763Z,74195
2017-04-10T01:00:21.854Z,74194
2017-04-10T01:00:31.981Z,74186
2017-04-10T01:00:42.064Z,74188
2017-04-10T01:00:52.157Z,74185
2017-04-10T01:01:02.246Z,74191
2017-04-10T01:01:12.048Z,74194
2017-04-10T01:01:22.145Z,74195
2017-04-10T01:01:32.249Z,74187
2017-04-10T01:01:42.349Z,74190
2017-04-10T01:01:52.441Z,74197
2017-04-10T01:02:02.526Z,74190
2017-04-10T01:02:12.042Z,74192
2017-04-10T01:02:22.139Z,74191
2017-04-10T01:02:32.236Z,74190
2017-04-10T01:02:42.338Z,74187
2017-04-10T01:02:52.429Z,74185
2017-04-10T01:03:02.525Z,74186
2017-04-10T01:03:12.338Z,74195
2017-04-10T01:03:22.428Z,74194
2017-04-10T01:03:32.235Z,74191
2017-04-10T01:03:42.329Z,74188
2017-04-10T01:03:52.423Z,74191
2017-04-10T01:04:02.225Z,74195
2017-04-10T01:04:12.054Z,74196
2017-04-10T01:04:22.148Z,74198
2017-04-10T01:04:32.241Z,74202
2017-04-10T01:04:42.338Z,74194
2017-04-10T01:04:52.142Z,74192
2017-04-10T01:05:02.239Z,74186
2017-04-10T01:05:12.044Z,74189
2017-04-10T01:05:22.137Z,74183
2017-04-10T01:05:32.228Z,74187
2017-04-10T01:05:42.321Z,74190
2017-04-10T01:05:52.411Z,74194
2017-04-10T01:06:02.499Z,74199
2017-04-10T01:06:12.300Z,74197
2017-04-10T01:06:22.395Z,74187
2017-04-10T01:06:32.198Z,74189
2017-04-10T01:06:42.285Z,74195
2017-04-10T01:06:52.368Z,74205
2017-04-10T01:07:02.457Z,74193
2017-04-10T01:07:12.544Z,74187
2017-04-10T01:07:22.350Z,74193
2017-04-10T01:07:32.442Z,74195
2017-04-10T01:07:42.533Z,74189
2017-04-10T01:07:52.341Z,74195
2017-04-10T01:08:02.149Z,74201
2017-04-10T01:08:12.241Z,74200
2017-04-10T01:08:22.048Z,74195
2017-04-10T01:08:32.139Z,74193
2017-04-10T01:08:42.234Z,74191
2017-04-10T01:08:52.319Z,74186
2017-04-10T01:09:02.412Z,74187
2017-04-10T01:09:12.216Z,74193
2017-04-10T01:09:22.310Z,74193
2017-04-10T01:09:32.407Z,74199
2017-04-10T01:09:42.497Z,74194
2017-04-10T01:09:52.592Z,74190
2017-04-10T01:10:02.686Z,74185
2017-04-10T01:10:12.781Z,74183
2017-04-10T01:10:22.876Z,74184
2017-04-10T01:10:32.674Z,74194
2017-04-10T01:10:42.767Z,74192
2017-04-10T01:10:52.856Z,74191
2017-04-10T01:11:02.664Z,74194
2017-04-10T01:11:12.756Z,74202
2017-04-10T01:11:22.558Z,74207
2017-04-10T01:11:32.652Z,74209
2017-04-10T01:11:42.751Z,74191
2017-04-10T01:11:52.879Z,74189
2017-04-10T01:12:02.973Z,74186
2017-04-10T01:12:12.783Z,74178
2017-04-10T01:12:22.876Z,74183
2017-04-10T01:12:32.680Z,74185
2017-04-10T01:12:42.496Z,74192
2017-04-10T01:12:52.302Z,74195
2017-04-10T01:13:02.395Z,74197
2017-04-10T01:13:12.199Z,74198
2017-04-10T01:13:21.719Z,74195
2017-04-10T01:13:31.810Z,74193
2017-04-10T01:13:41.904Z,74191
2017-04-10T01:13:52.000Z,74182
2017-04-10T01:14:02.095Z,74181
2017-04-10T01:14:11.904Z,74183
2017-04-10T01:14:21.708Z,74192
2017-04-10T01:14:31.797Z,74192
2017-04-10T01:14:41.897Z,74199
2017-04-10T01:14:51.988Z,74190
2017-04-10T01:15:02.090Z,74189
2017-04-10T01:15:12.186Z,74194
2017-04-10T01:15:21.985Z,74194
2017-04-10T01:15:32.114Z,74189
2017-04-10T01:15:42.213Z,74187
2017-04-10T01:15:52.306Z,74187
2017-04-10T01:16:02.399Z,74185
2017-04-10T01:16:12.511Z,74186
2017-04-10T01:16:22.596Z,74192
2017-04-10T01:16:32.689Z,74186
2017-04-10T01:16:42.783Z,74185
2017-04-10T01:16:52.871Z,74185
2017-04-10T01:17:02.955Z,74190
2017-04-10T01:17:12.755Z,74186
2017-04-10T01:17:22.845Z,74189
2017-04-10T01:17:32.941Z,74195
2017-04-10T01:17:43.035Z,74194
2017-04-10T01:17:53.134Z,74191
2017-04-10T01:18:02.938Z,74180
2017-04-10T01:18:12.756Z,74184
2017-04-10T01:18:22.845Z,74184
2017-04-10T01:18:32.950Z,74191
2017-04-10T01:18:42.758Z,74200
2017-04-10T01:18:52.849Z,74195
2017-04-10T01:19:02.939Z,74190
2017-04-10T01:19:12.744Z,74195
2017-04-10T01:19:22.549Z,74193
2017-04-10T01:19:32.648Z,74192
2017-04-10T01:19:42.743Z,74188
2017-04-10T01:19:52.841Z,74190
2017-04-10T01:20:02.933Z,74190
2017-04-10T01:20:12.736Z,74189
2017-04-10T01:20:22.539Z,74194
2017-04-10T01:20:32.624Z,74194
2017-04-10T01:20:42.713Z,74186
2017-04-10T01:20:52.804Z,74189
2017-04-10T01:21:02.903Z,74191
2017-04-10T01:21:12.706Z,74193
2017-04-10T01:21:22.511Z,74188
2017-04-10T01:21:32.602Z,74188
2017-04-10T01:21:42.703Z,74189
2017-04-10T01:21:52.807Z,74188
2017-04-10T01:22:02.895Z,74191
2017-04-10T01:22:12.983Z,74183
2017-04-10T01:22:23.081Z,74184
2017-04-10T01:22:33.184Z,74195
2017-04-10T01:22:43.276Z,74194
2017-04-10T01:22:53.366Z,74195
2017-04-10T01:23:03.461Z,74188
2017-04-10T01:23:13.546Z,74182
2017-04-10T01:23:23.638Z,74185
2017-04-10T01:23:33.726Z,74185
2017-04-10T01:23:43.816Z,74184
2017-04-10T01:23:53.902Z,74183
2017-04-10T01:24:03.996Z,74186
2017-04-10T01:24:14.082Z,74185
2017-04-10T01:24:24.169Z,74186
2017-04-10T01:24:34.257Z,74170
2017-04-10T01:24:44.340Z,74170
2017-04-10T01:24:54.424Z,74177
2017-04-10T01:25:04.518Z,74179
2017-04-10T01:25:14.607Z,74182
2017-04-10T01:25:24.698Z,74191
2017-04-10T01:25:34.783Z,74193
2017-04-10T01:25:44.876Z,74193
2017-04-10T01:25:54.969Z,74179
2017-04-10T01:26:05.061Z,74186
2017-04-10T01:26:15.164Z,74191
2017-04-10T01:26:24.964Z,74193
2017-04-10T01:26:35.049Z,74185
2017-04-10T01:26:45.139Z,74181
2017-04-10T01:26:55.223Z,74180
2017-04-10T01:27:05.029Z,74190
2017-04-10T01:27:15.116Z,74200
2017-04-10T01:27:24.927Z,74196
2017-04-10T01:27:35.019Z,74188
2017-04-10T01:27:45.105Z,74186
2017-04-10T01:27:55.194Z,74176
2017-04-10T01:28:05.282Z,74177
2017-04-10T01:28:15.371Z,74185
2017-04-10T01:28:25.460Z,74186
2017-04-10T01:28:35.545Z,74185
2017-04-10T01:28:45.634Z,74191
2017-04-10T01:28:55.722Z,74190
2017-04-10T01:29:05.806Z,74183
2017-04-10T01:29:15.608Z,74191
2017-04-10T01:29:25.696Z,74190
2017-04-10T01:29:35.788Z,74191
2017-04-10T01:29:45.592Z,74185
2017-04-10T01:29:55.691Z,74182
2017-04-10T01:30:05.494Z,74184
2017-04-10T01:30:15.296Z,74182
2017-04-10T01:30:25.387Z,74183
2017-04-10T01:30:35.472Z,74180
2017-04-10T01:30:45.564Z,74189
2017-04-10T01:30:55.374Z,74188
2017-04-10T01:31:05.176Z,74187
2017-04-10T01:31:15.268Z,74181
2017-04-10T01:31:25.074Z,74176
2017-04-10T01:31:35.161Z,74182
2017-04-10T01:31:45.251Z,74189
2017-04-10T01:31:55.344Z,74189
2017-04-10T01:32:05.191Z,74190
2017-04-10T01:32:15.286Z,74186
2017-04-10T01:32:25.375Z,74180
2017-04-10T01:32:35.471Z,74168
2017-04-10T01:32:45.569Z,74169
2017-04-10T01:32:55.668Z,74162
2017-04-10T01:33:05.472Z,74162
2017-04-10T01:33:15.557Z,74170
2017-04-10T01:33:25.660Z,74181
2017-04-10T01:33:35.469Z,74186
2017-04-10T01:33:45.565Z,74182
2017-04-10T01:33:55.373Z,74185
2017-04-10T01:34:05.461Z,74185
2017-04-10T01:34:15.556Z,74185
2017-04-10T01:34:25.353Z,74182
2017-04-10T01:34:35.451Z,74182
2017-04-10T01:34:45.538Z,74181
2017-04-10T01:34:55.628Z,74185
2017-04-10T01:35:05.427Z,74188
2017-04-10T01:35:15.517Z,74187
2017-04-10T01:35:25.608Z,74189
2017-04-10T01:35:35.703Z,74195
2017-04-10T01:35:45.793Z,74193
2017-04-10T01:35:55.601Z,74195
2017-04-10T01:36:05.444Z,74187
2017-04-10T01:36:15.532Z,74186
2017-04-10T01:36:25.338Z,74183
2017-04-10T01:36:35.436Z,74187
2017-04-10T01:36:45.241Z,74185
2017-04-10T01:36:55.049Z,74182
2017-04-10T01:37:05.139Z,74180
2017-04-10T01:37:15.241Z,74181
2017-04-10T01:37:25.328Z,74179
2017-04-10T01:37:35.417Z,74179
2017-04-10T01:37:45.220Z,74184
2017-04-10T01:37:55.317Z,74182
2017-04-10T01:38:05.410Z,74178
2017-04-10T01:38:15.500Z,74192
2017-04-10T01:38:25.595Z,74182
2017-04-10T01:38:35.692Z,74180
2017-04-10T01:38:45.785Z,74179
2017-04-10T01:38:55.880Z,74179
2017-04-10T01:39:05.974Z,74178
2017-04-10T01:39:16.060Z,74178
2017-04-10T01:39:26.161Z,74181
2017-04-10T01:39:36.254Z,74179
2017-04-10T01:39:45.769Z,74186
2017-04-10T01:39:55.859Z,74191
2017-04-10T01:40:05.953Z,74189
2017-04-10T01:40:16.049Z,74184
2017-04-10T01:40:26.139Z,74186
2017-04-10T01:40:36.230Z,74182
2017-04-10T01:40:45.747Z,74187
2017-04-10T01:40:55.840Z,74189
2017-04-10T01:41:05.930Z,74189
2017-04-10T01:41:16.021Z,74185
2017-04-10T01:41:26.112Z,74188
2017-04-10T01:41:36.204Z,74186
2017-04-10T01:41:46.295Z,74186
2017-04-10T01:41:56.386Z,74185
2017-04-10T01:42:06.474Z,74190
2017-04-10T01:42:16.570Z,74191
2017-04-10T01:42:26.657Z,74184
2017-04-10T01:42:36.174Z,74182
2017-04-10T01:42:46.255Z,74183
2017-04-10T01:42:56.341Z,74178
2017-04-10T01:43:06.427Z,74176
2017-04-10T01:43:16.518Z,74174
2017-04-10T01:43:26.615Z,74183
2017-04-10T01:43:36.416Z,74187
2017-04-10T01:43:46.511Z,74186
2017-04-10T01:43:56.605Z,74185
2017-04-10T01:44:06.695Z,74185
2017-04-10T01:44:16.797Z,74186
2017-04-10T01:44:26.881Z,74187
2017-04-10T01:44:36.681Z,74191
2017-04-10T01:44:46.766Z,74184
2017-04-10T01:44:56.851Z,74186
2017-04-10T01:45:06.665Z,74185
2017-04-10T01:45:16.757Z,74184
2017-04-10T01:45:26.845Z,74181
2017-04-10T01:45:36.929Z,74182
2017-04-10T01:45:47.026Z,74186
2017-04-10T01:45:57.112Z,74192
2017-04-10T01:46:06.929Z,74191
2017-04-10T01:46:16.742Z,74187
2017-04-10T01:46:26.825Z,74172
2017-04-10T01:46:36.926Z,74175
2017-04-10T01:46:47.009Z,74174
2017-04-10T01:46:56.846Z,74178
2017-04-10T01:47:06.938Z,74175
2017-04-10T01:47:17.037Z,74184
2017-04-10T01:47:26.836Z,74186
2017-04-10T01:47:36.948Z,74182
2017-04-10T01:47:46.745Z,74182
2017-04-10T01:47:56.833Z,74182
2017-04-10T01:48:06.931Z,74174
2017-04-10T01:48:16.730Z,74175
2017-04-10T01:48:26.819Z,74179
2017-04-10T01:48:36.920Z,74182
2017-04-10T01:48:47.007Z,74184
2017-04-10T01:48:57.092Z,74182
2017-04-10T01:49:07.179Z,74184
2017-04-10T01:49:17.268Z,74187
2017-04-10T01:49:27.388Z,74187
2017-04-10T01:49:37.477Z,74189
2017-04-10T01:49:47.572Z,74186
2017-04-10T01:49:57.657Z,74185
2017-04-10T01:50:07.757Z,74179
2017-04-10T01:50:17.847Z,74178
2017-04-10T01:50:27.937Z,74181
2017-04-10T01:50:38.027Z,74174
2017-04-10T01:50:48.112Z,74178
2017-04-10T01:50:58.201Z,74175
2017-04-10T01:51:08.287Z,74178
2017-04-10T01:51:18.086Z,74192
2017-04-10T01:51:28.179Z,74190
2017-04-10T01:51:38.271Z,74185
2017-04-10T01:51:48.076Z,74184
2017-04-10T01:51:58.164Z,74175
2017-04-10T01:52:08.263Z,74177
2017-04-10T01:52:18.349Z,74177
2017-04-10T01:52:28.444Z,74187
2017-04-10T01:52:38.531Z,74182
2017-04-10T01:52:48.619Z,74185
2017-04-10T01:52:58.708Z,74183
2017-04-10T01:53:08.798Z,74180
2017-04-10T01:53:18.638Z,74175
2017-04-10T01:53:28.732Z,74181
2017-04-10T01:53:38.818Z,74181
2017-04-10T01:53:48.904Z,74181
2017-04-10T01:53:58.998Z,74180
2017-04-10T01:54:09.085Z,74181
2017-04-10T01:54:19.175Z,74177
2017-04-10T01:54:29.302Z,74182
2017-04-10T01:54:39.403Z,74182
2017-04-10T01:54:49.494Z,74180
2017-04-10T01:54:59.585Z,74180
2017-04-10T01:55:09.673Z,74182
2017-04-10T01:55:19.764Z,74182
2017-04-10T01:55:29.852Z,74182
2017-04-10T01:55:39.938Z,74181
2017-04-10T01:55:50.030Z,74179
2017-04-10T01:56:00.124Z,74177
2017-04-10T01:56:09.640Z,74175
2017-04-10T01:56:19.728Z,74172
2017-04-10T01:56:29.818Z,74175
2017-04-10T01:56:39.909Z,74170
2017-04-10T01:56:49.993Z,74168
2017-04-10T01:57:00.090Z,74174
2017-04-10T01:57:09.609Z,74173
2017-04-10T01:57:19.412Z,74177
2017-04-10T01:57:29.501Z,74178
2017-04-10T01:57:39.586Z,74179
2017-04-10T01:57:49.675Z,74177
2017-04-10T01:57:59.767Z,74171
2017-04-10T01:58:09.570Z,74177
2017-04-10T01:58:19.662Z,74175
2017-04-10T01:58:29.464Z,74176
2017-04-10T01:58:39.563Z,74179
2017-04-10T01:58:49.362Z,74181
2017-04-10T01:58:59.500Z,74179
2017-04-10T01:59:09.589Z,74178
2017-04-10T01:59:19.392Z,74176
2017-04-10T01:59:29.522Z,74183
2017-04-10T01:59:39.321Z,74177
2017-04-10T01:59:49.119Z,74175
2017-04-10T01:59:59.214Z,74178
2017-04-10T02:00:09.021Z,74175
2017-04-10T02:00:18.832Z,74174
2017-04-10T02:00:28.919Z,74177
2017-04-10T02:00:39.006Z,74175
2017-04-10T02:00:48.813Z,74172
2017-04-10T02:00:58.905Z,74167
2017-04-10T02:01:08.997Z,74176
2017-04-10T02:01:19.082Z,74174
2017-04-10T02:01:29.172Z,74172
2017-04-10T02:01:39.258Z,74175
2017-04-10T02:01:48.779Z,74176
2017-04-10T02:01:58.869Z,74171
2017-04-10T02:02:08.962Z,74172
2017-04-10T02:02:19.050Z,74172
2017-04-10T02:02:29.137Z,74167
2017-04-10T02:02:39.222Z,74174
2017-04-10T02:02:49.025Z,74174
2017-04-10T02:02:59.113Z,74170
2017-04-10T02:03:09.203Z,74171
2017-04-10T02:03:19.294Z,74173
2017-04-10T02:03:29.416Z,74168
2017-04-10T02:03:39.216Z,74170
2017-04-10T02:03:49.015Z,74174
2017-04-10T02:03:59.103Z,74176
2017-04-10T02:04:09.198Z,74174
2017-04-10T02:04:19.290Z,74174
2017-04-10T02:04:29.376Z,74176
2017-04-10T02:04:39.465Z,74175
2017-04-10T02:04:49.552Z,74170
2017-04-10T02:04:59.641Z,74174
2017-04-10T02:05:09.734Z,74175
2017-04-10T02:05:19.822Z,74176
2017-04-10T02:05:29.915Z,74176
2017-04-10T02:05:40.003Z,74173
2017-04-10T02:05:50.090Z,74178
2017-04-10T02:06:00.172Z,74169
2017-04-10T02:06:10.266Z,74172
2017-04-10T02:06:20.353Z,74178
2017-04-10T02:06:30.441Z,74171
2017-04-10T02:06:40.532Z,74172
2017-04-10T02:06:50.661Z,74172
2017-04-10T02:07:00.749Z,74175
2017-04-10T02:07:10.551Z,74172
2017-04-10T02:07:20.646Z,74178
2017-04-10T02:07:30.743Z,74175
2017-04-10T02:07:40.838Z,74176
2017-04-10T02:07:50.922Z,74175
2017-04-10T02:08:01.013Z,74172
2017-04-10T02:08:11.100Z,74175
2017-04-10T02:08:21.198Z,74176
2017-04-10T02:08:31.633Z,74173
2017-04-10T02:08:41.443Z,74173
2017-04-10T02:08:51.533Z,74177
2017-04-10T02:09:01.620Z,74175